createdAt,value
2023-02-26T00:01:51.822Z,7.17
2023-02-26T00:03:56.018Z,7.17
2023-02-26T00:05:59.852Z,7.16
2023-02-26T00:08:01.516Z,7.13
2023-02-26T00:10:04.030Z,7.10
2023-02-26T00:12:06.398Z,7.09
2023-02-26T00:14:11.193Z,7.07
2023-02-26T00:16:26.482Z,7.04
2023-02-26T00:18:29.077Z,6.98
2023-02-26T00:20:31.136Z,6.94
2023-02-26T00:22:33.321Z,6.87
2023-02-26T00:24:34.917Z,6.81
2023-02-26T00:26:36.567Z,6.83
2023-02-26T00:28:38.907Z,6.74
2023-02-26T00:30:41.295Z,6.74
2023-02-26T00:32:44.903Z,6.66
2023-02-26T00:34:48.098Z,6.71
2023-02-26T00:37:00.346Z,6.71
2023-02-26T00:39:16.377Z,6.70
2023-02-26T00:41:18.591Z,6.65
2023-02-26T00:43:22.092Z,6.68
2023-02-26T00:45:24.315Z,6.73
2023-02-26T00:47:33.543Z,6.73
2023-02-26T00:49:49.453Z,6.68
2023-02-26T00:51:55.355Z,6.59
2023-02-26T00:54:05.231Z,6.67
2023-02-26T00:56:06.866Z,6.69
2023-02-26T00:58:08.433Z,6.67
2023-02-26T01:00:11.766Z,6.73
2023-02-26T01:02:13.288Z,6.80
2023-02-26T01:04:16.640Z,6.79
2023-02-26T01:06:21.956Z,6.76
2023-02-26T01:08:37.907Z,6.74
2023-02-26T01:10:39.919Z,6.67
2023-02-26T01:12:42.412Z,6.58
2023-02-26T01:14:44.755Z,6.42
2023-02-26T01:16:53.945Z,6.28
2023-02-26T01:19:03.112Z,6.13
2023-02-26T01:21:08.119Z,6.25
2023-02-26T01:23:15.612Z,6.26
2023-02-26T01:25:24.516Z,6.31
2023-02-26T01:27:26.418Z,6.40
2023-02-26T01:29:28.270Z,6.47
2023-02-26T01:31:38.484Z,6.50
2023-02-26T01:33:44.369Z,6.56
2023-02-26T01:35:50.342Z,6.56
2023-02-26T01:37:57.885Z,6.55
2023-02-26T01:40:21.749Z,6.63
2023-02-26T01:42:27.198Z,6.59
2023-02-26T01:44:34.262Z,6.58
2023-02-26T01:46:45.069Z,6.53
2023-02-26T01:48:50.642Z,6.54
2023-02-26T01:50:52.272Z,6.51
2023-02-26T01:53:20.019Z,6.49
2023-02-26T01:55:26.660Z,6.42
2023-02-26T01:57:28.346Z,6.36
2023-02-26T01:59:29.888Z,6.29
2023-02-26T02:01:32.292Z,6.13
2023-02-26T02:03:34.323Z,6.18
2023-02-26T02:05:41.988Z,6.14
2023-02-26T02:07:43.561Z,6.14
2023-02-26T02:09:45.165Z,6.16
2023-02-26T02:11:59.916Z,6.12
2023-02-26T02:14:12.713Z,6.09
2023-02-26T02:16:22.637Z,6.11
2023-02-26T02:18:37.205Z,6.14
2023-02-26T02:21:01.456Z,6.20
2023-02-26T02:23:16.112Z,6.23
2023-02-26T02:25:35.923Z,6.24
2023-02-26T02:27:47.975Z,6.27
2023-02-26T02:30:30.957Z,6.28
2023-02-26T02:32:39.237Z,6.25
2023-02-26T02:34:46.080Z,6.32
2023-02-26T02:36:54.899Z,6.35
2023-02-26T02:39:02.340Z,6.35
2023-02-26T02:41:09.568Z,6.32
2023-02-26T02:43:15.007Z,6.29
2023-02-26T02:45:23.601Z,6.33
2023-02-26T02:47:28.822Z,6.23
2023-02-26T02:49:37.443Z,6.15
2023-02-26T02:51:44.704Z,6.04
2023-02-26T02:53:49.490Z,5.96
2023-02-26T02:55:56.242Z,5.94
2023-02-26T02:58:02.416Z,5.85
2023-02-26T03:00:08.940Z,5.74
2023-02-26T03:02:13.751Z,5.62
2023-02-26T03:04:16.780Z,5.54
2023-02-26T03:06:19.821Z,5.44
2023-02-26T03:08:27.671Z,5.36
2023-02-26T03:10:29.790Z,5.42
2023-02-26T03:12:32.672Z,5.50
2023-02-26T03:14:34.635Z,5.61
2023-02-26T03:16:49.382Z,5.59
2023-02-26T03:18:55.720Z,5.60
2023-02-26T03:21:04.721Z,5.58
2023-02-26T03:23:14.273Z,5.58
2023-02-26T03:25:21.165Z,5.49
2023-02-26T03:27:27.332Z,5.43
2023-02-26T03:29:38.213Z,5.46
2023-02-26T03:31:49.379Z,5.54
2023-02-26T03:33:57.976Z,5.57
2023-02-26T03:36:06.353Z,5.62
2023-02-26T03:38:14.406Z,5.68
2023-02-26T03:40:19.282Z,5.68
2023-02-26T03:42:28.474Z,5.75
2023-02-26T03:44:34.685Z,5.71
2023-02-26T03:46:41.042Z,5.73
2023-02-26T03:48:44.651Z,5.71
2023-02-26T03:50:51.294Z,5.76
2023-02-26T03:52:54.613Z,5.79
2023-02-26T03:55:08.638Z,5.74
2023-02-26T03:57:10.203Z,5.69
2023-02-26T03:59:12.334Z,5.72
2023-02-26T04:01:19.955Z,5.82
2023-02-26T04:03:26.668Z,5.86
2023-02-26T04:05:30.822Z,5.90
2023-02-26T04:07:32.850Z,5.90
2023-02-26T04:09:34.472Z,5.95
2023-02-26T04:11:38.784Z,5.85
2023-02-26T04:13:40.393Z,5.86
2023-02-26T04:15:41.903Z,5.81
2023-02-26T04:17:43.496Z,5.75
2023-02-26T04:19:45.047Z,5.69
2023-02-26T04:21:46.892Z,5.67
2023-02-26T04:23:48.977Z,5.69
2023-02-26T04:25:50.955Z,5.76
2023-02-26T04:27:53.846Z,5.69
2023-02-26T04:29:57.707Z,5.73
2023-02-26T04:31:59.602Z,5.72
2023-02-26T04:34:01.323Z,5.72
2023-02-26T04:36:03.371Z,5.66
2023-02-26T04:38:05.048Z,5.63
2023-02-26T04:40:08.009Z,5.54
2023-02-26T04:42:09.608Z,5.52
2023-02-26T04:44:12.662Z,5.59
2023-02-26T04:46:14.322Z,5.66
2023-02-26T04:48:16.927Z,5.71
2023-02-26T04:50:18.713Z,5.63
2023-02-26T04:52:20.368Z,5.53
2023-02-26T04:54:21.990Z,5.60
2023-02-26T04:56:23.864Z,5.57
2023-02-26T04:58:25.740Z,5.60
2023-02-26T05:00:28.784Z,5.51
2023-02-26T05:02:30.296Z,5.29
2023-02-26T05:04:32.057Z,5.34
2023-02-26T05:06:33.684Z,5.28
2023-02-26T05:08:35.336Z,5.16
2023-02-26T05:10:36.921Z,5.12
2023-02-26T05:12:38.760Z,5.13
2023-02-26T05:14:40.271Z,5.07
2023-02-26T05:16:43.311Z,5.07
2023-02-26T05:18:44.947Z,5.10
2023-02-26T05:20:51.076Z,5.15
2023-02-26T05:22:52.640Z,5.04
2023-02-26T05:24:54.175Z,4.72
2023-02-26T05:26:55.744Z,4.63
2023-02-26T05:28:57.426Z,4.57
2023-02-26T05:30:59.533Z,4.46
2023-02-26T05:33:02.714Z,4.43
2023-02-26T05:35:05.113Z,4.24
2023-02-26T05:37:06.764Z,4.09
2023-02-26T05:39:09.279Z,4.18
2023-02-26T05:41:11.251Z,4.14
2023-02-26T05:43:12.901Z,4.14
2023-02-26T05:45:14.495Z,4.20
2023-02-26T05:47:16.441Z,4.09
2023-02-26T05:49:19.346Z,4.21
2023-02-26T05:51:20.993Z,4.33
2023-02-26T05:53:22.540Z,4.40
2023-02-26T05:55:24.728Z,4.54
2023-02-26T05:57:26.358Z,4.65
2023-02-26T05:59:27.904Z,4.72
2023-02-26T06:01:29.840Z,4.85
2023-02-26T06:03:31.450Z,4.91
2023-02-26T06:05:34.421Z,5.00
2023-02-26T06:07:36.507Z,5.08
2023-02-26T06:09:38.567Z,5.11
2023-02-26T06:11:40.127Z,5.13
2023-02-26T06:13:41.734Z,5.10
2023-02-26T06:15:43.451Z,5.10
2023-02-26T06:17:47.855Z,5.15
2023-02-26T06:19:49.427Z,5.14
2023-02-26T06:21:52.309Z,5.22
2023-02-26T06:23:53.892Z,5.24
2023-02-26T06:25:55.637Z,5.34
2023-02-26T06:27:57.357Z,5.32
2023-02-26T06:29:58.963Z,5.30
2023-02-26T06:32:08.011Z,5.29
2023-02-26T06:34:09.719Z,5.37
2023-02-26T06:36:11.701Z,5.35
2023-02-26T06:38:15.171Z,5.34
2023-02-26T06:40:17.665Z,4.98
2023-02-26T06:42:20.202Z,4.84
2023-02-26T06:44:21.954Z,4.84
2023-02-26T06:46:24.159Z,4.90
2023-02-26T06:48:25.976Z,4.96
2023-02-26T06:50:27.900Z,5.05
2023-02-26T06:52:29.844Z,5.11
2023-02-26T06:54:34.148Z,5.13
2023-02-26T06:56:35.984Z,5.18
2023-02-26T06:58:37.615Z,5.18
2023-02-26T07:00:39.782Z,5.17
2023-02-26T07:02:41.434Z,5.22
2023-02-26T07:04:43.290Z,5.24
2023-02-26T07:06:45.054Z,5.22
2023-02-26T07:08:46.733Z,5.23
2023-02-26T07:10:50.145Z,5.22
2023-02-26T07:12:51.808Z,5.20
2023-02-26T07:14:53.386Z,5.29
2023-02-26T07:16:55.021Z,5.31
2023-02-26T07:18:56.632Z,5.40
2023-02-26T07:20:58.205Z,5.43
2023-02-26T07:22:59.789Z,5.47
2023-02-26T07:25:01.409Z,5.51
2023-02-26T07:27:04.524Z,5.58
2023-02-26T07:29:06.309Z,5.59
2023-02-26T07:31:08.023Z,5.63
2023-02-26T07:33:11.254Z,5.63
2023-02-26T07:35:13.678Z,5.70
2023-02-26T07:37:15.372Z,5.74
2023-02-26T07:39:17.028Z,5.78
2023-02-26T07:41:18.592Z,5.84
2023-02-26T07:43:21.527Z,5.85
2023-02-26T07:45:23.696Z,5.83
2023-02-26T07:47:25.492Z,5.96
2023-02-26T07:49:27.328Z,5.96
2023-02-26T07:51:30.502Z,6.01
2023-02-26T07:53:34.204Z,6.00
2023-02-26T07:55:35.831Z,6.04
2023-02-26T07:57:37.453Z,6.01
2023-02-26T07:59:40.490Z,6.08
2023-02-26T08:01:46.485Z,6.12
2023-02-26T08:03:48.306Z,6.05
2023-02-26T08:05:49.997Z,5.81
2023-02-26T08:07:51.521Z,5.50
2023-02-26T08:09:53.054Z,5.50
2023-02-26T08:11:54.714Z,5.53
2023-02-26T08:13:56.329Z,5.30
2023-02-26T08:15:59.393Z,5.26
2023-02-26T08:18:01.098Z,5.13
2023-02-26T08:20:02.688Z,5.16
2023-02-26T08:22:04.346Z,5.02
2023-02-26T08:24:06.230Z,5.32
2023-02-26T08:26:10.269Z,5.58
2023-02-26T08:28:12.036Z,5.60
2023-02-26T08:30:14.329Z,5.86
2023-02-26T08:32:18.283Z,6.20
2023-02-26T08:34:19.948Z,6.13
2023-02-26T08:36:21.511Z,6.33
2023-02-26T08:38:23.073Z,6.64
2023-02-26T08:40:24.804Z,6.90
2023-02-26T08:42:26.546Z,7.08
2023-02-26T08:44:28.114Z,6.76
2023-02-26T08:46:30.151Z,7.02
2023-02-26T08:48:33.303Z,6.75
2023-02-26T08:50:34.874Z,6.61
2023-02-26T08:52:36.535Z,6.58
2023-02-26T08:54:38.142Z,6.33
2023-02-26T08:56:39.791Z,6.68
2023-02-26T08:58:41.447Z,6.67
2023-02-26T09:00:43.414Z,6.59
2023-02-26T09:02:45.423Z,6.38
2023-02-26T09:04:48.391Z,6.53
2023-02-26T09:06:49.989Z,6.48
2023-02-26T09:08:51.542Z,6.11
2023-02-26T09:10:53.145Z,6.14
2023-02-26T09:12:54.837Z,6.00
2023-02-26T09:14:56.363Z,6.35
2023-02-26T09:16:57.943Z,6.73
2023-02-26T09:18:59.577Z,6.46
2023-02-26T09:21:02.801Z,6.37
2023-02-26T09:23:04.437Z,6.71
2023-02-26T09:25:07.075Z,6.61
2023-02-26T09:27:08.772Z,6.33
2023-02-26T09:29:10.464Z,6.40
2023-02-26T09:31:12.176Z,6.26
2023-02-26T09:33:16.618Z,6.24
2023-02-26T09:35:18.520Z,6.50
2023-02-26T09:37:21.426Z,6.60
2023-02-26T09:39:22.960Z,6.70
2023-02-26T09:41:30.159Z,6.63
2023-02-26T09:43:49.424Z,6.50
2023-02-26T09:45:52.940Z,6.87
2023-02-26T09:47:55.886Z,6.75
2023-02-26T09:50:02.719Z,6.36
2023-02-26T09:52:18.531Z,6.37
2023-02-26T09:54:24.512Z,6.42
2023-02-26T09:56:27.474Z,6.81
2023-02-26T09:58:32.328Z,7.22
2023-02-26T10:00:37.992Z,7.06
2023-02-26T10:02:49.727Z,7.06
2023-02-26T10:05:00.874Z,7.17
2023-02-26T10:07:13.708Z,6.99
2023-02-26T10:09:29.978Z,7.06
2023-02-26T10:11:43.854Z,7.38
2023-02-26T10:13:57.757Z,7.40
2023-02-26T10:16:07.775Z,7.19
2023-02-26T10:18:13.296Z,7.02
2023-02-26T10:20:20.074Z,6.87
2023-02-26T10:22:27.303Z,7.14
2023-02-26T10:24:37.910Z,7.37
2023-02-26T10:26:43.616Z,7.21
2023-02-26T10:28:54.435Z,6.93
2023-02-26T10:31:00.542Z,7.09
2023-02-26T10:33:13.743Z,7.06
2023-02-26T10:35:17.380Z,7.47
2023-02-26T10:37:23.141Z,7.61
2023-02-26T10:39:39.177Z,7.67
2023-02-26T10:41:41.092Z,7.56
2023-02-26T10:43:47.765Z,7.75
2023-02-26T10:46:09.418Z,8.00
2023-02-26T10:48:24.137Z,8.41
2023-02-26T10:50:25.993Z,7.86
2023-02-26T10:52:31.193Z,7.95
2023-02-26T10:54:37.289Z,7.87
2023-02-26T10:56:46.333Z,8.03
2023-02-26T10:58:48.013Z,8.23
2023-02-26T11:00:52.357Z,8.36
2023-02-26T11:02:55.935Z,8.18
2023-02-26T11:05:07.139Z,8.34
2023-02-26T11:07:09.835Z,8.14
2023-02-26T11:09:19.921Z,8.36
2023-02-26T11:11:42.483Z,8.60
2023-02-26T11:13:44.776Z,8.78
2023-02-26T11:15:52.224Z,8.93
2023-02-26T11:17:56.880Z,8.93
2023-02-26T11:20:02.264Z,9.24
2023-02-26T11:22:05.446Z,9.23
2023-02-26T11:24:11.958Z,9.00
2023-02-26T11:26:17.044Z,9.17
2023-02-26T11:28:22.940Z,9.21
2023-02-26T11:30:26.889Z,9.38
2023-02-26T11:32:31.827Z,9.31
2023-02-26T11:34:33.534Z,9.27
2023-02-26T11:36:39.410Z,9.13
2023-02-26T11:38:44.765Z,8.76
2023-02-26T11:40:49.438Z,8.61
2023-02-26T11:42:55.088Z,8.59
2023-02-26T11:44:58.228Z,8.46
2023-02-26T11:47:03.767Z,8.79
2023-02-26T11:49:05.487Z,8.88
2023-02-26T11:51:08.961Z,9.22
2023-02-26T11:53:18.706Z,9.13
2023-02-26T11:55:22.504Z,9.26
2023-02-26T11:57:26.274Z,9.20
2023-02-26T11:59:31.496Z,9.32
2023-02-26T12:01:36.506Z,9.59
2023-02-26T12:03:39.895Z,9.34
2023-02-26T12:05:41.707Z,9.19
2023-02-26T12:07:43.538Z,9.00
2023-02-26T12:09:46.270Z,8.88
2023-02-26T12:12:08.885Z,8.43
2023-02-26T12:14:29.860Z,8.49
2023-02-26T12:16:39.743Z,8.29
2023-02-26T12:18:53.986Z,8.12
2023-02-26T12:21:06.009Z,7.76
2023-02-26T12:23:29.790Z,7.92
2023-02-26T12:25:52.978Z,7.87
2023-02-26T12:28:09.045Z,7.61
2023-02-26T12:30:27.094Z,7.55
2023-02-26T12:32:50.612Z,7.70
2023-02-26T12:35:25.264Z,7.78
2023-02-26T12:37:38.242Z,7.94
2023-02-26T12:39:53.460Z,8.06
2023-02-26T12:42:09.922Z,8.18
2023-02-26T12:44:23.696Z,8.10
2023-02-26T12:46:44.037Z,8.21
2023-02-26T12:49:07.609Z,8.37
2023-02-26T12:51:20.009Z,8.42
2023-02-26T12:53:49.088Z,8.49
2023-02-26T12:56:04.580Z,8.31
2023-02-26T12:58:26.335Z,8.22
2023-02-26T13:00:44.753Z,8.19
2023-02-26T13:03:17.454Z,8.07
2023-02-26T13:05:29.382Z,7.95
2023-02-26T13:07:56.844Z,8.00
2023-02-26T13:10:05.632Z,8.08
2023-02-26T13:12:21.719Z,8.11
2023-02-26T13:14:33.161Z,8.18
2023-02-26T13:16:49.305Z,8.14
2023-02-26T13:19:00.660Z,8.24
2023-02-26T13:21:08.667Z,8.23
2023-02-26T13:23:13.885Z,8.32
2023-02-26T13:25:22.212Z,8.11
2023-02-26T13:27:28.321Z,7.78
2023-02-26T13:29:35.450Z,7.74
2023-02-26T13:31:43.270Z,7.75
2023-02-26T13:33:46.234Z,7.60
2023-02-26T13:35:52.490Z,7.77
2023-02-26T13:37:58.576Z,7.65
2023-02-26T13:40:33.682Z,7.69
2023-02-26T13:42:43.459Z,7.74
2023-02-26T13:44:54.654Z,7.63
2023-02-26T13:47:21.226Z,7.64
2023-02-26T13:49:29.010Z,7.37
2023-02-26T13:51:35.654Z,7.20
2023-02-26T13:53:57.572Z,7.27
2023-02-26T13:56:07.843Z,7.08
2023-02-26T13:58:33.657Z,7.12
2023-02-26T14:00:36.266Z,7.09
2023-02-26T14:02:47.382Z,7.23
2023-02-26T14:04:53.934Z,7.25
2023-02-26T14:06:59.872Z,7.25
2023-02-26T14:09:05.392Z,7.19
2023-02-26T14:11:43.850Z,7.34
2023-02-26T14:14:07.180Z,7.34
2023-02-26T14:16:13.404Z,7.25
2023-02-26T14:18:30.357Z,7.26
2023-02-26T14:20:34.572Z,7.23
2023-02-26T14:22:37.480Z,7.26
2023-02-26T14:24:52.037Z,7.16
2023-02-26T14:27:09.490Z,7.33
2023-02-26T14:29:16.785Z,7.43
2023-02-26T14:31:20.799Z,7.21
2023-02-26T14:33:29.287Z,7.40
2023-02-26T14:35:34.521Z,7.30
2023-02-26T14:37:38.261Z,7.22
2023-02-26T14:39:45.728Z,7.30
2023-02-26T14:41:47.817Z,7.13
2023-02-26T14:43:56.013Z,7.04
2023-02-26T14:45:57.697Z,7.05
2023-02-26T14:48:01.419Z,6.89
2023-02-26T14:50:05.859Z,6.87
2023-02-26T14:52:26.799Z,7.01
2023-02-26T14:54:38.988Z,7.16
2023-02-26T14:56:54.194Z,7.02
2023-02-26T14:59:07.861Z,7.11
2023-02-26T15:01:24.281Z,6.89
2023-02-26T15:03:55.602Z,6.78
2023-02-26T15:06:21.329Z,6.62
2023-02-26T15:08:37.746Z,6.71
2023-02-26T15:10:51.734Z,6.92
2023-02-26T15:13:09.333Z,7.13
2023-02-26T15:15:24.118Z,6.97
2023-02-26T15:17:54.982Z,7.16
2023-02-26T15:20:14.990Z,7.21
2023-02-26T15:24:33.166Z,7.31
2023-02-26T15:26:38.767Z,7.25
2023-02-26T15:28:42.120Z,7.20
2023-02-26T15:30:48.285Z,7.20
2023-02-26T15:32:57.113Z,7.39
2023-02-26T15:35:00.711Z,7.46
2023-02-26T15:37:02.335Z,7.75
2023-02-26T15:39:07.083Z,7.59
2023-02-26T15:41:09.878Z,7.60
2023-02-26T15:43:16.176Z,7.65
2023-02-26T15:45:26.497Z,7.51
2023-02-26T15:47:29.807Z,7.64
2023-02-26T15:49:35.573Z,7.67
2023-02-26T15:51:37.663Z,7.62
2023-02-26T15:53:43.159Z,7.57
2023-02-26T15:55:48.734Z,7.55
2023-02-26T15:57:51.124Z,7.43
2023-02-26T15:59:54.770Z,7.28
2023-02-26T16:01:58.492Z,7.34
2023-02-26T16:04:03.159Z,7.44
2023-02-26T16:06:10.976Z,7.62
2023-02-26T16:08:14.420Z,7.41
2023-02-26T16:10:18.489Z,7.52
2023-02-26T16:12:22.559Z,7.61
2023-02-26T16:14:27.136Z,7.66
2023-02-26T16:16:37.158Z,7.93
2023-02-26T16:18:41.794Z,7.91
2023-02-26T16:20:45.854Z,7.92
2023-02-26T16:22:49.629Z,7.95
2023-02-26T16:24:54.532Z,7.97
2023-02-26T16:26:58.901Z,7.95
2023-02-26T16:29:04.605Z,8.01
2023-02-26T16:31:06.695Z,8.09
2023-02-26T16:33:13.047Z,8.15
2023-02-26T16:35:21.187Z,8.16
2023-02-26T16:37:26.429Z,8.25
2023-02-26T16:39:31.179Z,8.21
2023-02-26T16:41:35.881Z,8.00
2023-02-26T16:43:50.790Z,7.80
2023-02-26T16:45:56.135Z,7.66
2023-02-26T16:47:59.616Z,7.49
2023-02-26T16:50:02.686Z,7.62
2023-02-26T16:52:13.789Z,7.64
2023-02-26T16:54:20.536Z,7.67
2023-02-26T16:56:27.537Z,7.67
2023-02-26T16:58:31.796Z,7.80
2023-02-26T17:00:34.434Z,7.82
2023-02-26T17:02:38.460Z,7.73
2023-02-26T17:04:53.186Z,7.55
2023-02-26T17:06:55.637Z,7.46
2023-02-26T17:09:01.115Z,7.39
2023-02-26T17:11:06.094Z,7.29
2023-02-26T17:13:15.061Z,7.11
2023-02-26T17:15:18.846Z,7.06
2023-02-26T17:17:20.571Z,6.92
2023-02-26T17:19:22.152Z,7.08
2023-02-26T17:21:23.933Z,6.88
2023-02-26T17:23:30.241Z,6.76
2023-02-26T17:25:38.697Z,6.88
2023-02-26T17:27:40.327Z,6.75
2023-02-26T17:29:45.016Z,6.79
2023-02-26T17:31:48.554Z,6.88
2023-02-26T17:33:50.120Z,6.79
2023-02-26T17:35:53.120Z,6.71
2023-02-26T17:37:55.218Z,6.71
2023-02-26T17:39:56.845Z,6.69
2023-02-26T17:41:59.804Z,6.70
2023-02-26T17:44:01.436Z,6.79
2023-02-26T17:46:05.130Z,6.98
2023-02-26T17:48:07.751Z,7.14
2023-02-26T17:50:20.680Z,7.17
2023-02-26T17:52:22.261Z,7.02
2023-02-26T17:54:23.817Z,7.16
2023-02-26T17:56:27.807Z,7.15
2023-02-26T17:58:34.338Z,7.06
2023-02-26T18:00:35.875Z,7.00
2023-02-26T18:02:37.446Z,6.92
2023-02-26T18:04:39.164Z,6.84
2023-02-26T18:06:40.847Z,6.78
2023-02-26T18:08:42.751Z,6.92
2023-02-26T18:10:44.311Z,6.95
2023-02-26T18:12:45.985Z,6.78
2023-02-26T18:14:49.626Z,6.91
2023-02-26T18:16:51.282Z,6.75
2023-02-26T18:18:52.869Z,6.80
2023-02-26T18:20:54.938Z,6.66
2023-02-26T18:22:56.530Z,6.71
2023-02-26T18:24:58.081Z,6.83
2023-02-26T18:26:59.693Z,6.57
2023-02-26T18:29:01.319Z,6.55
2023-02-26T18:31:04.718Z,6.44
2023-02-26T18:33:06.821Z,6.17
2023-02-26T18:35:09.177Z,6.23
2023-02-26T18:37:17.242Z,6.15
2023-02-26T18:39:21.217Z,6.12
2023-02-26T18:41:22.909Z,5.75
2023-02-26T18:43:24.528Z,6.01
2023-02-26T18:45:26.165Z,6.08
2023-02-26T18:47:29.052Z,6.08
2023-02-26T18:49:30.673Z,5.92
2023-02-26T18:51:32.257Z,5.96
2023-02-26T18:53:33.820Z,6.03
2023-02-26T18:55:37.158Z,5.83
2023-02-26T18:57:40.276Z,5.69
2023-02-26T18:59:44.961Z,5.79
2023-02-26T19:01:46.776Z,5.80
2023-02-26T19:03:49.752Z,5.92
2023-02-26T19:05:58.221Z,5.71
2023-02-26T19:07:59.767Z,5.70
2023-02-26T19:10:01.365Z,5.70
2023-02-26T19:12:03.644Z,5.72
2023-02-26T19:14:05.295Z,5.92
2023-02-26T19:16:07.444Z,5.93
2023-02-26T19:18:09.127Z,5.76
2023-02-26T19:20:13.589Z,5.75
2023-02-26T19:22:15.656Z,5.71
2023-02-26T19:24:17.234Z,5.89
2023-02-26T19:26:18.810Z,5.83
2023-02-26T19:28:20.494Z,5.75
2023-02-26T19:30:23.159Z,5.74
2023-02-26T19:32:24.876Z,5.78
2023-02-26T19:34:26.851Z,5.66
2023-02-26T19:36:29.810Z,5.48
2023-02-26T19:38:33.284Z,5.51
2023-02-26T19:40:34.852Z,5.61
2023-02-26T19:42:36.503Z,5.81
2023-02-26T19:44:38.147Z,5.55
2023-02-26T19:46:39.830Z,5.70
2023-02-26T19:48:41.768Z,5.65
2023-02-26T19:50:46.312Z,5.44
2023-02-26T19:52:49.263Z,5.36
2023-02-26T19:54:50.760Z,5.48
2023-02-26T19:56:52.678Z,5.69
2023-02-26T19:58:54.266Z,5.69
2023-02-26T20:00:56.404Z,5.48
2023-02-26T20:02:58.004Z,5.48
2023-02-26T20:04:59.665Z,5.44
2023-02-26T20:07:01.232Z,5.53
2023-02-26T20:09:04.832Z,5.46
2023-02-26T20:11:07.208Z,5.50
2023-02-26T20:13:08.842Z,5.54
2023-02-26T20:15:11.087Z,5.44
2023-02-26T20:17:12.675Z,5.20
2023-02-26T20:19:14.185Z,5.23
2023-02-26T20:21:15.754Z,5.31
2023-02-26T20:23:17.414Z,5.49
2023-02-26T20:25:20.290Z,5.53
2023-02-26T20:27:21.835Z,5.33
2023-02-26T20:29:23.410Z,5.45
2023-02-26T20:31:25.448Z,5.51
2023-02-26T20:33:27.205Z,5.56
2023-02-26T20:35:31.415Z,5.65
2023-02-26T20:37:33.009Z,5.61
2023-02-26T20:39:34.684Z,5.38
2023-02-26T20:41:37.698Z,5.55
2023-02-26T20:43:39.355Z,5.66
2023-02-26T20:45:41.631Z,5.71
2023-02-26T20:47:43.459Z,5.59
2023-02-26T20:49:44.986Z,5.56
2023-02-26T20:51:46.587Z,5.53
2023-02-26T20:53:48.188Z,5.53
2023-02-26T20:55:49.725Z,5.48
2023-02-26T20:57:52.758Z,5.48
2023-02-26T20:59:54.455Z,5.52
2023-02-26T21:01:56.257Z,5.37
2023-02-26T21:03:57.817Z,5.24
2023-02-26T21:05:59.384Z,5.17
2023-02-26T21:08:00.930Z,5.19
2023-02-26T21:10:02.587Z,5.18
2023-02-26T21:12:05.039Z,5.23
2023-02-26T21:14:09.509Z,5.12
2023-02-26T21:16:11.220Z,5.06
2023-02-26T21:18:12.848Z,4.99
2023-02-26T21:20:14.621Z,4.87
2023-02-26T21:22:16.784Z,5.02
2023-02-26T21:24:18.402Z,4.97
2023-02-26T21:26:20.370Z,4.94
2023-02-26T21:28:21.962Z,4.86
2023-02-26T21:30:24.970Z,4.88
2023-02-26T21:32:27.062Z,4.92
2023-02-26T21:34:33.749Z,5.00
2023-02-26T21:36:35.735Z,5.07
2023-02-26T21:38:37.668Z,5.05
2023-02-26T21:40:39.206Z,5.10
2023-02-26T21:42:41.083Z,5.12
2023-02-26T21:44:42.868Z,5.04
2023-02-26T21:46:45.753Z,4.78
2023-02-26T21:48:47.377Z,4.91
2023-02-26T21:50:48.932Z,4.98
2023-02-26T21:52:50.464Z,4.97
2023-02-26T21:54:52.096Z,5.15
2023-02-26T21:56:54.263Z,4.98
2023-02-26T21:58:55.841Z,4.92
2023-02-26T22:00:57.925Z,4.73
2023-02-26T22:03:00.948Z,4.70
2023-02-26T22:05:03.210Z,4.74
2023-02-26T22:07:04.804Z,4.79
2023-02-26T22:09:06.565Z,4.71
2023-02-26T22:11:08.106Z,4.64
2023-02-26T22:13:09.715Z,4.57
2023-02-26T22:15:11.539Z,4.65
2023-02-26T22:17:13.093Z,4.68
2023-02-26T22:19:16.034Z,4.64
2023-02-26T22:21:17.616Z,4.56
2023-02-26T22:23:19.507Z,4.59
2023-02-26T22:25:21.353Z,4.42
2023-02-26T22:27:22.950Z,4.42
2023-02-26T22:29:24.615Z,4.53
2023-02-26T22:31:27.460Z,4.51
2023-02-26T22:33:29.242Z,4.50
2023-02-26T22:35:32.512Z,4.50
2023-02-26T22:37:34.118Z,4.55
2023-02-26T22:39:35.716Z,4.49
2023-02-26T22:41:37.666Z,4.56
2023-02-26T22:43:39.479Z,4.61
2023-02-26T22:45:41.041Z,4.69
2023-02-26T22:47:42.703Z,4.68
2023-02-26T22:49:44.319Z,4.70
2023-02-26T22:51:47.277Z,4.77
2023-02-26T22:53:48.815Z,4.91
2023-02-26T22:55:53.118Z,4.86
2023-02-26T22:57:54.823Z,4.95
2023-02-26T22:59:56.357Z,4.81
2023-02-26T23:01:57.969Z,4.78
2023-02-26T23:03:59.617Z,5.03
2023-02-26T23:06:01.248Z,5.02
2023-02-26T23:08:04.158Z,4.96
2023-02-26T23:10:09.416Z,4.98
2023-02-26T23:12:11.371Z,5.11
2023-02-26T23:14:13.139Z,5.09
2023-02-26T23:16:14.972Z,5.05
2023-02-26T23:18:17.153Z,4.93
2023-02-26T23:20:21.466Z,4.97
2023-02-26T23:22:23.241Z,5.09
2023-02-26T23:24:26.254Z,5.22
2023-02-26T23:26:28.375Z,5.31
2023-02-26T23:28:30.246Z,5.07
2023-02-26T23:30:31.896Z,4.93
2023-02-26T23:32:33.698Z,5.19
2023-02-26T23:34:35.323Z,5.25
2023-02-26T23:36:37.109Z,5.12
2023-02-26T23:38:38.954Z,5.15
2023-02-26T23:40:41.803Z,5.21
2023-02-26T23:42:43.371Z,5.26
2023-02-26T23:44:44.967Z,5.15
2023-02-26T23:46:46.513Z,5.00
2023-02-26T23:48:48.049Z,5.05
2023-02-26T23:50:49.723Z,4.97
2023-02-26T23:52:52.210Z,4.97
2023-02-26T23:54:53.834Z,4.79
2023-02-26T23:56:56.789Z,4.85
2023-02-26T23:58:58.306Z,4.85
